sensor_id;sensor_type;location;lat;lon;timestamp;temperature;humidity
23801;DHT22;12081;48.614;10.226;2024-03-08T00:17:44;-0.20;99.90
23801;DHT22;12081;48.614;10.226;2024-03-08T00:28:44;-0.20;99.90
23801;DHT22;12081;48.614;10.226;2024-03-08T00:39:44;-0.20;99.90
23801;DHT22;12081;48.614;10.226;2024-03-08T01:43:19;-0.50;99.90
23801;DHT22;12081;48.614;10.226;2024-03-08T01:46:11;-0.50;99.90
23801;DHT22;12081;48.614;10.226;2024-03-08T01:51:42;-0.50;99.90
23801;DHT22;12081;48.614;10.226;2024-03-08T01:57:11;-0.50;99.90
23801;DHT22;12081;48.614;10.226;2024-03-08T02:02:42;-0.70;99.90
23801;DHT22;12081;48.614;10.226;2024-03-08T02:35:46;-0.80;99.90
23801;DHT22;12081;48.614;10.226;2024-03-08T02:41:29;-0.80;99.90
23801;DHT22;12081;48.614;10.226;2024-03-08T02:53:12;-0.90;99.90
23801;DHT22;12081;48.614;10.226;2024-03-08T03:15:11;-1.00;99.90
23801;DHT22;12081;48.614;10.226;2024-03-08T03:37:10;-1.10;99.90
23801;DHT22;12081;48.614;10.226;2024-03-08T03:56:26;-0.50;99.90
23801;DHT22;12081;48.614;10.226;2024-03-08T04:10:10;-0.30;99.90
23801;DHT22;12081;48.614;10.226;2024-03-08T04:23:58;-0.10;99.90
23801;DHT22;12081;48.614;10.226;2024-03-08T04:40:26;-0.10;99.90
23801;DHT22;12081;48.614;10.226;2024-03-08T04:54:11;0.00;99.90
23801;DHT22;12081;48.614;10.226;2024-03-08T04:56:55;0.00;99.90
23801;DHT22;12081;48.614;10.226;2024-03-08T05:24:25;0.00;99.90
23801;DHT22;12081;48.614;10.226;2024-03-08T06:00:09;0.10;99.90
23801;DHT22;12081;48.614;10.226;2024-03-08T06:30:35;0.00;99.90
23801;DHT22;12081;48.614;10.226;2024-03-08T06:36:04;0.20;99.90
23801;DHT22;12081;48.614;10.226;2024-03-08T06:55:20;0.30;99.90
23801;DHT22;12081;48.614;10.226;2024-03-08T07:03:38;0.20;99.90
23801;DHT22;12081;48.614;10.226;2024-03-08T07:09:07;0.40;99.90
23801;DHT22;12081;48.614;10.226;2024-03-08T07:11:52;0.50;99.90
23801;DHT22;12081;48.614;10.226;2024-03-08T07:17:24;0.40;99.90
23801;DHT22;12081;48.614;10.226;2024-03-08T07:20:09;0.50;99.90
23801;DHT22;12081;48.614;10.226;2024-03-08T07:22:55;0.40;99.90
23801;DHT22;12081;48.614;10.226;2024-03-08T07:25:39;0.50;99.90
23801;DHT22;12081;48.614;10.226;2024-03-08T07:33:57;0.80;99.90
23801;DHT22;12081;48.614;10.226;2024-03-08T07:42:12;0.90;99.90
23801;DHT22;12081;48.614;10.226;2024-03-08T07:47:42;0.90;99.90
23801;DHT22;12081;48.614;10.226;2024-03-08T07:55:57;1.00;99.90
23801;DHT22;12081;48.614;10.226;2024-03-08T07:58:41;1.00;99.90
23801;DHT22;12081;48.614;10.226;2024-03-08T08:01:25;1.00;99.90
23801;DHT22;12081;48.614;10.226;2024-03-08T08:04:10;1.00;99.90
23801;DHT22;12081;48.614;10.226;2024-03-08T08:06:56;1.10;99.90
23801;DHT22;12081;48.614;10.226;2024-03-08T08:17:59;1.20;99.90
23801;DHT22;12081;48.614;10.226;2024-03-08T08:23:27;1.40;99.90
23801;DHT22;12081;48.614;10.226;2024-03-08T08:26:12;1.40;99.90
23801;DHT22;12081;48.614;10.226;2024-03-08T08:42:39;1.30;99.90
23801;DHT22;12081;48.614;10.226;2024-03-08T08:45:24;1.50;99.90
23801;DHT22;12081;48.614;10.226;2024-03-08T08:50:54;1.60;99.90
23801;DHT22;12081;48.614;10.226;2024-03-08T08:53:42;1.70;99.90
23801;DHT22;12081;48.614;10.226;2024-03-08T08:59:13;1.80;99.90
23801;DHT22;12081;48.614;10.226;2024-03-08T09:02:03;1.70;99.90
23801;DHT22;12081;48.614;10.226;2024-03-08T09:07:34;2.10;99.90
23801;DHT22;12081;48.614;10.226;2024-03-08T09:13:03;1.80;99.90
23801;DHT22;12081;48.614;10.226;2024-03-08T09:21:17;2.00;99.90
23801;DHT22;12081;48.614;10.226;2024-03-08T09:24:01;2.20;99.90
23801;DHT22;12081;48.614;10.226;2024-03-08T09:26:46;2.30;99.90
23801;DHT22;12081;48.614;10.226;2024-03-08T09:35:01;2.30;99.90
23801;DHT22;12081;48.614;10.226;2024-03-08T09:46:05;3.20;99.90
23801;DHT22;12081;48.614;10.226;2024-03-08T09:48:50;2.70;99.90
23801;DHT22;12081;48.614;10.226;2024-03-08T09:51:36;3.00;99.90
23801;DHT22;12081;48.614;10.226;2024-03-08T09:54:21;3.00;99.90
23801;DHT22;12081;48.614;10.226;2024-03-08T10:00:47;3.30;99.90
23801;DHT22;12081;48.614;10.226;2024-03-08T10:03:32;3.20;99.90
23801;DHT22;12081;48.614;10.226;2024-03-08T10:06:22;3.20;99.90
23801;DHT22;12081;48.614;10.226;2024-03-08T10:11:57;3.30;99.90
23801;DHT22;12081;48.614;10.226;2024-03-08T10:17:27;3.40;99.90
23801;DHT22;12081;48.614;10.226;2024-03-08T10:20:18;3.50;99.90
23801;DHT22;12081;48.614;10.226;2024-03-08T10:23:03;3.60;99.90
23801;DHT22;12081;48.614;10.226;2024-03-08T10:25:49;3.70;99.90
23801;DHT22;12081;48.614;10.226;2024-03-08T10:28:34;4.20;99.90
23801;DHT22;12081;48.614;10.226;2024-03-08T10:31:20;4.00;99.90
23801;DHT22;12081;48.614;10.226;2024-03-08T10:34:05;4.00;99.90
23801;DHT22;12081;48.614;10.226;2024-03-08T10:36:50;4.10;99.90
23801;DHT22;12081;48.614;10.226;2024-03-08T10:39:36;4.30;99.90
23801;DHT22;12081;48.614;10.226;2024-03-08T10:42:28;4.30;99.90
23801;DHT22;12081;48.614;10.226;2024-03-08T10:45:18;4.40;99.90
23801;DHT22;12081;48.614;10.226;2024-03-08T10:48:14;4.70;99.90
23801;DHT22;12081;48.614;10.226;2024-03-08T10:51:07;5.00;99.90
23801;DHT22;12081;48.614;10.226;2024-03-08T10:53:57;5.10;99.90
23801;DHT22;12081;48.614;10.226;2024-03-08T10:56:42;5.30;99.90
23801;DHT22;12081;48.614;10.226;2024-03-08T10:59:26;5.30;99.90
23801;DHT22;12081;48.614;10.226;2024-03-08T11:02:12;5.40;99.90
23801;DHT22;12081;48.614;10.226;2024-03-08T11:04:57;5.40;99.90
23801;DHT22;12081;48.614;10.226;2024-03-08T11:07:42;5.90;99.90
23801;DHT22;12081;48.614;10.226;2024-03-08T11:10:28;6.00;99.90
23801;DHT22;12081;48.614;10.226;2024-03-08T11:13:32;5.90;99.90
23801;DHT22;12081;48.614;10.226;2024-03-08T11:19:24;7.40;99.90
23801;DHT22;12081;48.614;10.226;2024-03-08T11:22:26;8.90;99.90
23801;DHT22;12081;48.614;10.226;2024-03-08T11:25:32;9.90;99.90
23801;DHT22;12081;48.614;10.226;2024-03-08T11:28:22;9.80;99.90
23801;DHT22;12081;48.614;10.226;2024-03-08T11:34:49;10.50;99.00
23801;DHT22;12081;48.614;10.226;2024-03-08T11:37:34;10.30;96.50
23801;DHT22;12081;48.614;10.226;2024-03-08T11:40:20;10.40;97.30
23801;DHT22;12081;48.614;10.226;2024-03-08T11:43:07;10.40;97.50
23801;DHT22;12081;48.614;10.226;2024-03-08T11:45:54;10.50;97.70
23801;DHT22;12081;48.614;10.226;2024-03-08T11:48:54;10.90;96.80
23801;DHT22;12081;48.614;10.226;2024-03-08T11:51:43;11.30;95.00
23801;DHT22;12081;48.614;10.226;2024-03-08T11:54:29;12.00;92.50
23801;DHT22;12081;48.614;10.226;2024-03-08T11:57:14;13.20;90.50
23801;DHT22;12081;48.614;10.226;2024-03-08T12:00:00;16.50;85.40
23801;DHT22;12081;48.614;10.226;2024-03-08T12:03:04;13.00;84.00
23801;DHT22;12081;48.614;10.226;2024-03-08T12:05:57;12.90;84.00
23801;DHT22;12081;48.614;10.226;2024-03-08T12:08:45;13.10;84.40
23801;DHT22;12081;48.614;10.226;2024-03-08T12:11:33;16.20;85.60
23801;DHT22;12081;48.614;10.226;2024-03-08T12:14:18;14.90;81.10
23801;DHT22;12081;48.614;10.226;2024-03-08T12:17:04;15.70;75.50
23801;DHT22;12081;48.614;10.226;2024-03-08T12:19:50;14.80;70.10
23801;DHT22;12081;48.614;10.226;2024-03-08T12:22:42;15.30;68.90
23801;DHT22;12081;48.614;10.226;2024-03-08T12:25:30;15.10;65.70
23801;DHT22;12081;48.614;10.226;2024-03-08T12:28:21;15.20;66.70
23801;DHT22;12081;48.614;10.226;2024-03-08T12:31:12;18.00;68.10
23801;DHT22;12081;48.614;10.226;2024-03-08T12:33:57;17.20;63.10
23801;DHT22;12081;48.614;10.226;2024-03-08T12:36:50;18.10;58.50
23801;DHT22;12081;48.614;10.226;2024-03-08T12:39:40;17.80;57.10
23801;DHT22;12081;48.614;10.226;2024-03-08T12:42:25;20.30;59.60
23801;DHT22;12081;48.614;10.226;2024-03-08T12:45:10;17.30;57.40
23801;DHT22;12081;48.614;10.226;2024-03-08T12:47:55;17.40;57.40
23801;DHT22;12081;48.614;10.226;2024-03-08T12:50:40;17.70;57.40
23801;DHT22;12081;48.614;10.226;2024-03-08T12:53:25;17.50;57.00
23801;DHT22;12081;48.614;10.226;2024-03-08T12:56:13;16.60;58.10
23801;DHT22;12081;48.614;10.226;2024-03-08T12:59:02;16.10;58.00
23801;DHT22;12081;48.614;10.226;2024-03-08T13:01:46;17.00;58.80
23801;DHT22;12081;48.614;10.226;2024-03-08T13:04:32;16.50;60.10
23801;DHT22;12081;48.614;10.226;2024-03-08T13:07:16;15.60;61.40
23801;DHT22;12081;48.614;10.226;2024-03-08T13:10:01;18.60;64.30
23801;DHT22;12081;48.614;10.226;2024-03-08T13:12:46;15.30;63.60
23801;DHT22;12081;48.614;10.226;2024-03-08T13:15:30;15.10;63.80
23801;DHT22;12081;48.614;10.226;2024-03-08T13:18:18;14.10;64.90
23801;DHT22;12081;48.614;10.226;2024-03-08T13:21:04;14.10;67.00
23801;DHT22;12081;48.614;10.226;2024-03-08T13:23:52;14.00;67.50
23801;DHT22;12081;48.614;10.226;2024-03-08T13:26:37;13.90;67.00
23801;DHT22;12081;48.614;10.226;2024-03-08T13:29:22;13.80;67.50
23801;DHT22;12081;48.614;10.226;2024-03-08T13:32:07;13.30;69.00
23801;DHT22;12081;48.614;10.226;2024-03-08T13:34:55;14.20;70.10
23801;DHT22;12081;48.614;10.226;2024-03-08T13:37:41;13.20;71.20
23801;DHT22;12081;48.614;10.226;2024-03-08T13:40:25;15.90;73.70
23801;DHT22;12081;48.614;10.226;2024-03-08T13:43:10;13.70;70.30
23801;DHT22;12081;48.614;10.226;2024-03-08T13:45:56;13.50;68.80
23801;DHT22;12081;48.614;10.226;2024-03-08T13:48:41;14.50;69.60
23801;DHT22;12081;48.614;10.226;2024-03-08T13:51:27;13.90;67.40
23801;DHT22;12081;48.614;10.226;2024-03-08T13:54:13;16.50;68.40
23801;DHT22;12081;48.614;10.226;2024-03-08T13:56:58;14.40;67.50
23801;DHT22;12081;48.614;10.226;2024-03-08T14:03:24;14.20;65.60
23801;DHT22;12081;48.614;10.226;2024-03-08T14:09:50;13.30;68.70
23801;DHT22;12081;48.614;10.226;2024-03-08T14:12:37;12.50;72.20
23801;DHT22;12081;48.614;10.226;2024-03-08T14:15:22;12.40;74.70
23801;DHT22;12081;48.614;10.226;2024-03-08T14:18:06;12.40;73.10
23801;DHT22;12081;48.614;10.226;2024-03-08T14:20:51;15.00;75.60
23801;DHT22;12081;48.614;10.226;2024-03-08T14:23:36;12.70;74.00
23801;DHT22;12081;48.614;10.226;2024-03-08T14:26:21;13.00;72.30
23801;DHT22;12081;48.614;10.226;2024-03-08T14:29:05;12.80;74.00
23801;DHT22;12081;48.614;10.226;2024-03-08T14:31:51;12.60;72.60
23801;DHT22;12081;48.614;10.226;2024-03-08T14:34:36;12.50;73.30
23801;DHT22;12081;48.614;10.226;2024-03-08T14:37:21;13.40;72.50
23801;DHT22;12081;48.614;10.226;2024-03-08T14:40:12;12.20;72.10
23801;DHT22;12081;48.614;10.226;2024-03-08T14:42:59;12.50;72.90
23801;DHT22;12081;48.614;10.226;2024-03-08T14:45:44;12.40;75.10
23801;DHT22;12081;48.614;10.226;2024-03-08T14:48:31;11.80;72.80
23801;DHT22;12081;48.614;10.226;2024-03-08T14:51:16;13.10;74.20
23801;DHT22;12081;48.614;10.226;2024-03-08T14:54:01;11.90;73.00
23801;DHT22;12081;48.614;10.226;2024-03-08T14:56:45;11.80;74.80
23801;DHT22;12081;48.614;10.226;2024-03-08T14:59:31;11.70;75.10
23801;DHT22;12081;48.614;10.226;2024-03-08T15:02:15;11.50;75.20
23801;DHT22;12081;48.614;10.226;2024-03-08T15:05:03;11.40;74.00
23801;DHT22;12081;48.614;10.226;2024-03-08T15:07:53;11.20;75.50
23801;DHT22;12081;48.614;10.226;2024-03-08T15:10:38;11.20;76.10
23801;DHT22;12081;48.614;10.226;2024-03-08T15:13:25;11.30;76.30
23801;DHT22;12081;48.614;10.226;2024-03-08T15:16:22;11.30;76.30
23801;DHT22;12081;48.614;10.226;2024-03-08T15:19:09;11.20;77.00
23801;DHT22;12081;48.614;10.226;2024-03-08T15:21:56;11.00;79.20
23801;DHT22;12081;48.614;10.226;2024-03-08T15:24:43;11.20;79.80
23801;DHT22;12081;48.614;10.226;2024-03-08T15:27:27;11.60;80.70
23801;DHT22;12081;48.614;10.226;2024-03-08T15:30:13;11.00;77.90
23801;DHT22;12081;48.614;10.226;2024-03-08T15:33:00;11.10;78.40
23801;DHT22;12081;48.614;10.226;2024-03-08T15:35:47;11.50;79.60
23801;DHT22;12081;48.614;10.226;2024-03-08T15:38:34;10.80;78.60
23801;DHT22;12081;48.614;10.226;2024-03-08T15:41:20;10.50;79.20
23801;DHT22;12081;48.614;10.226;2024-03-08T15:44:05;10.50;80.40
23801;DHT22;12081;48.614;10.226;2024-03-08T15:46:49;10.40;80.90
23801;DHT22;12081;48.614;10.226;2024-03-08T15:49:34;10.10;80.70
23801;DHT22;12081;48.614;10.226;2024-03-08T15:52:19;10.00;82.60
23801;DHT22;12081;48.614;10.226;2024-03-08T15:55:04;9.90;82.50
23801;DHT22;12081;48.614;10.226;2024-03-08T15:57:50;9.90;82.90
23801;DHT22;12081;48.614;10.226;2024-03-08T16:00:35;10.70;83.60
23801;DHT22;12081;48.614;10.226;2024-03-08T16:03:39;9.70;83.10
23801;DHT22;12081;48.614;10.226;2024-03-08T16:06:23;9.40;85.60
23801;DHT22;12081;48.614;10.226;2024-03-08T16:09:11;11.00;87.30
23801;DHT22;12081;48.614;10.226;2024-03-08T16:11:59;9.60;86.60
23801;DHT22;12081;48.614;10.226;2024-03-08T16:14:44;9.50;85.50
23801;DHT22;12081;48.614;10.226;2024-03-08T16:17:29;8.90;85.50
23801;DHT22;12081;48.614;10.226;2024-03-08T16:20:15;9.10;86.30
23801;DHT22;12081;48.614;10.226;2024-03-08T16:23:00;8.70;88.20
23801;DHT22;12081;48.614;10.226;2024-03-08T16:25:46;8.60;90.00
23801;DHT22;12081;48.614;10.226;2024-03-08T16:28:30;8.50;90.30
23801;DHT22;12081;48.614;10.226;2024-03-08T16:31:23;8.50;90.60
23801;DHT22;12081;48.614;10.226;2024-03-08T16:34:09;8.40;92.10
23801;DHT22;12081;48.614;10.226;2024-03-08T16:36:54;8.20;92.50
23801;DHT22;12081;48.614;10.226;2024-03-08T16:39:40;8.10;96.10
23801;DHT22;12081;48.614;10.226;2024-03-08T16:42:25;8.00;97.80
23801;DHT22;12081;48.614;10.226;2024-03-08T16:45:12;8.00;98.30
23801;DHT22;12081;48.614;10.226;2024-03-08T16:47:57;7.80;98.80
23801;DHT22;12081;48.614;10.226;2024-03-08T16:50:43;7.70;99.60
23801;DHT22;12081;48.614;10.226;2024-03-08T16:53:29;7.40;99.90
23801;DHT22;12081;48.614;10.226;2024-03-08T16:56:16;7.40;99.90
23801;DHT22;12081;48.614;10.226;2024-03-08T16:59:02;7.20;99.90
23801;DHT22;12081;48.614;10.226;2024-03-08T17:01:48;7.00;99.90
23801;DHT22;12081;48.614;10.226;2024-03-08T17:04:34;6.90;99.90
23801;DHT22;12081;48.614;10.226;2024-03-08T17:07:21;6.80;99.90
23801;DHT22;12081;48.614;10.226;2024-03-08T17:10:06;6.60;99.90
23801;DHT22;12081;48.614;10.226;2024-03-08T17:13:00;6.60;99.90
23801;DHT22;12081;48.614;10.226;2024-03-08T17:15:45;6.40;99.90
23801;DHT22;12081;48.614;10.226;2024-03-08T17:18:32;6.20;99.90
23801;DHT22;12081;48.614;10.226;2024-03-08T17:24:02;6.00;99.90
23801;DHT22;12081;48.614;10.226;2024-03-08T17:26:49;6.00;99.90
23801;DHT22;12081;48.614;10.226;2024-03-08T17:29:33;5.80;99.90
23801;DHT22;12081;48.614;10.226;2024-03-08T17:32:19;5.60;99.90
23801;DHT22;12081;48.614;10.226;2024-03-08T17:35:04;5.40;99.90
23801;DHT22;12081;48.614;10.226;2024-03-08T17:37:56;5.40;99.90
23801;DHT22;12081;48.614;10.226;2024-03-08T17:40:42;5.50;99.90
23801;DHT22;12081;48.614;10.226;2024-03-08T17:43:28;5.10;99.90
23801;DHT22;12081;48.614;10.226;2024-03-08T17:46:12;5.10;99.90
23801;DHT22;12081;48.614;10.226;2024-03-08T17:48:58;5.10;99.90
23801;DHT22;12081;48.614;10.226;2024-03-08T17:51:43;5.40;99.90
23801;DHT22;12081;48.614;10.226;2024-03-08T17:54:27;4.80;99.90
23801;DHT22;12081;48.614;10.226;2024-03-08T17:57:12;5.00;99.90
23801;DHT22;12081;48.614;10.226;2024-03-08T17:59:58;4.50;99.90
23801;DHT22;12081;48.614;10.226;2024-03-08T18:02:47;4.60;99.90
23801;DHT22;12081;48.614;10.226;2024-03-08T18:05:35;4.60;99.90
23801;DHT22;12081;48.614;10.226;2024-03-08T18:08:21;4.50;99.90
23801;DHT22;12081;48.614;10.226;2024-03-08T18:13:51;4.30;99.90
23801;DHT22;12081;48.614;10.226;2024-03-08T18:16:36;4.40;99.90
23801;DHT22;12081;48.614;10.226;2024-03-08T18:19:23;4.40;99.90
23801;DHT22;12081;48.614;10.226;2024-03-08T18:22:08;4.40;99.90
23801;DHT22;12081;48.614;10.226;2024-03-08T18:24:52;4.30;99.90
23801;DHT22;12081;48.614;10.226;2024-03-08T18:27:38;4.00;99.90
23801;DHT22;12081;48.614;10.226;2024-03-08T18:30:22;4.10;99.90
23801;DHT22;12081;48.614;10.226;2024-03-08T18:33:09;4.10;99.90
23801;DHT22;12081;48.614;10.226;2024-03-08T18:35:58;4.10;99.90
23801;DHT22;12081;48.614;10.226;2024-03-08T18:38:44;4.00;99.90
23801;DHT22;12081;48.614;10.226;2024-03-08T18:41:28;4.00;99.90
23801;DHT22;12081;48.614;10.226;2024-03-08T18:47:02;3.80;99.90
23801;DHT22;12081;48.614;10.226;2024-03-08T18:49:46;3.60;99.90
23801;DHT22;12081;48.614;10.226;2024-03-08T18:52:32;3.90;99.90
23801;DHT22;12081;48.614;10.226;2024-03-08T18:55:17;3.70;99.90
23801;DHT22;12081;48.614;10.226;2024-03-08T18:58:08;3.50;99.90
23801;DHT22;12081;48.614;10.226;2024-03-08T19:04:34;3.40;99.90
23801;DHT22;12081;48.614;10.226;2024-03-08T19:07:20;3.50;99.90
23801;DHT22;12081;48.614;10.226;2024-03-08T19:10:06;3.30;99.90
23801;DHT22;12081;48.614;10.226;2024-03-08T19:12:55;3.40;99.90
23801;DHT22;12081;48.614;10.226;2024-03-08T19:15:40;3.20;99.90
23801;DHT22;12081;48.614;10.226;2024-03-08T19:18:26;3.70;99.90
23801;DHT22;12081;48.614;10.226;2024-03-08T19:21:13;3.40;99.90
23801;DHT22;12081;48.614;10.226;2024-03-08T19:26:42;3.20;99.90
23801;DHT22;12081;48.614;10.226;2024-03-08T19:34:59;3.30;99.90
23801;DHT22;12081;48.614;10.226;2024-03-08T19:37:45;3.20;99.90
23801;DHT22;12081;48.614;10.226;2024-03-08T19:40:30;3.30;99.90
23801;DHT22;12081;48.614;10.226;2024-03-08T19:43:19;3.40;99.90
23801;DHT22;12081;48.614;10.226;2024-03-08T19:46:05;3.20;99.90
23801;DHT22;12081;48.614;10.226;2024-03-08T19:48:54;3.10;99.90
23801;DHT22;12081;48.614;10.226;2024-03-08T19:54:26;3.30;99.90
23801;DHT22;12081;48.614;10.226;2024-03-08T19:57:13;3.00;99.90
23801;DHT22;12081;48.614;10.226;2024-03-08T19:59:59;3.30;99.90
23801;DHT22;12081;48.614;10.226;2024-03-08T20:02:48;3.20;99.90
23801;DHT22;12081;48.614;10.226;2024-03-08T20:05:33;3.20;99.90
23801;DHT22;12081;48.614;10.226;2024-03-08T20:08:18;3.20;99.90
23801;DHT22;12081;48.614;10.226;2024-03-08T20:11:03;3.00;99.90
23801;DHT22;12081;48.614;10.226;2024-03-08T20:13:53;3.20;99.90
23801;DHT22;12081;48.614;10.226;2024-03-08T20:19:22;3.10;99.90
23801;DHT22;12081;48.614;10.226;2024-03-08T20:22:07;3.10;99.90
23801;DHT22;12081;48.614;10.226;2024-03-08T20:24:52;3.00;99.90
23801;DHT22;12081;48.614;10.226;2024-03-08T20:30:25;3.00;99.90
23801;DHT22;12081;48.614;10.226;2024-03-08T20:33:11;3.00;99.90
23801;DHT22;12081;48.614;10.226;2024-03-08T20:38:42;3.10;99.90
23801;DHT22;12081;48.614;10.226;2024-03-08T20:47:00;2.90;99.90
23801;DHT22;12081;48.614;10.226;2024-03-08T20:49:46;2.90;99.90
23801;DHT22;12081;48.614;10.226;2024-03-08T20:55:17;2.80;99.90
23801;DHT22;12081;48.614;10.226;2024-03-08T20:58:06;2.60;99.90
23801;DHT22;12081;48.614;10.226;2024-03-08T21:04:31;2.70;99.90
23801;DHT22;12081;48.614;10.226;2024-03-08T21:07:20;2.70;99.90
23801;DHT22;12081;48.614;10.226;2024-03-08T21:10:05;2.80;99.90
23801;DHT22;12081;48.614;10.226;2024-03-08T21:18:25;2.60;99.90
23801;DHT22;12081;48.614;10.226;2024-03-08T21:21:10;2.50;99.90
23801;DHT22;12081;48.614;10.226;2024-03-08T21:23:56;2.50;99.90
23801;DHT22;12081;48.614;10.226;2024-03-08T21:26:41;2.60;99.90
23801;DHT22;12081;48.614;10.226;2024-03-08T21:29:26;2.50;99.90
23801;DHT22;12081;48.614;10.226;2024-03-08T21:34:59;2.40;99.90
23801;DHT22;12081;48.614;10.226;2024-03-08T21:37:44;2.50;99.90
23801;DHT22;12081;48.614;10.226;2024-03-08T21:44:11;2.30;99.90
23801;DHT22;12081;48.614;10.226;2024-03-08T21:46:56;2.40;99.90
23801;DHT22;12081;48.614;10.226;2024-03-08T21:50:02;2.30;99.90
23801;DHT22;12081;48.614;10.226;2024-03-08T22:03:53;2.30;99.90
23801;DHT22;12081;48.614;10.226;2024-03-08T22:06:38;2.00;99.90
23801;DHT22;12081;48.614;10.226;2024-03-08T22:09:23;2.00;99.90
23801;DHT22;12081;48.614;10.226;2024-03-08T22:37:08;1.70;99.90
23801;DHT22;12081;48.614;10.226;2024-03-08T22:39:53;1.60;99.90
23801;DHT22;12081;48.614;10.226;2024-03-08T22:42:39;1.70;99.90
23801;DHT22;12081;48.614;10.226;2024-03-08T22:45:24;1.60;99.90
23801;DHT22;12081;48.614;10.226;2024-03-08T22:59:07;1.80;99.90
23801;DHT22;12081;48.614;10.226;2024-03-08T23:01:52;1.80;99.90
23801;DHT22;12081;48.614;10.226;2024-03-08T23:04:37;1.80;99.90
23801;DHT22;12081;48.614;10.226;2024-03-08T23:07:23;1.70;99.90
23801;DHT22;12081;48.614;10.226;2024-03-08T23:12:57;1.40;99.90
23801;DHT22;12081;48.614;10.226;2024-03-08T23:15:41;1.40;99.90
23801;DHT22;12081;48.614;10.226;2024-03-08T23:29:30;1.00;99.90
23801;DHT22;12081;48.614;10.226;2024-03-08T23:32:15;1.20;99.90
23801;DHT22;12081;48.614;10.226;2024-03-08T23:35:01;1.20;99.90
23801;DHT22;12081;48.614;10.226;2024-03-08T23:37:45;1.00;99.90
23801;DHT22;12081;48.614;10.226;2024-03-08T23:40:30;1.20;99.90
23801;DHT22;12081;48.614;10.226;2024-03-08T23:43:16;1.20;99.90
23801;DHT22;12081;48.614;10.226;2024-03-08T23:46:01;1.10;99.90
23801;DHT22;12081;48.614;10.226;2024-03-08T23:51:32;1.50;99.90
23801;DHT22;12081;48.614;10.226;2024-03-08T23:54:17;1.10;99.90
23801;DHT22;12081;48.614;10.226;2024-03-08T23:57:06;1.30;99.90
23801;DHT22;12081;48.614;10.226;2024-03-08T23:59:51;1.00;99.90
